createdAt,value
2023-01-17T00:00:12.764Z,60.59
2023-01-17T00:01:12.678Z,63.16
2023-01-17T00:02:12.697Z,60.10
2023-01-17T00:03:12.692Z,67.03
2023-01-17T00:04:12.732Z,62.52
2023-01-17T00:05:12.670Z,63.81
2023-01-17T00:06:12.677Z,66.87
2023-01-17T00:07:12.659Z,62.04
2023-01-17T00:08:12.652Z,63.16
2023-01-17T00:09:12.639Z,61.71
2023-01-17T00:10:12.644Z,63.49
2023-01-17T00:11:12.644Z,67.35
2023-01-17T00:12:12.608Z,63.16
2023-01-17T00:13:12.619Z,65.90
2023-01-17T00:14:12.600Z,62.20
2023-01-17T00:15:12.600Z,59.94
2023-01-17T00:16:12.617Z,63.65
2023-01-17T00:17:12.597Z,63.65
2023-01-17T00:18:12.572Z,59.62
2023-01-17T00:19:12.571Z,66.06
2023-01-17T00:20:12.565Z,60.59
2023-01-17T00:21:12.551Z,59.94
2023-01-17T00:22:12.567Z,63.16
2023-01-17T00:23:12.560Z,61.87
2023-01-17T00:24:12.535Z,64.94
2023-01-17T00:25:12.526Z,66.71
2023-01-17T00:26:12.523Z,59.62
2023-01-17T00:27:12.537Z,66.06
2023-01-17T00:28:12.527Z,62.68
2023-01-17T00:29:12.488Z,56.88
2023-01-17T00:30:12.506Z,48.34
2023-01-17T00:31:12.553Z,62.20
2023-01-17T00:32:12.497Z,56.40
2023-01-17T00:33:12.482Z,54.95
2023-01-17T00:34:12.468Z,57.69
2023-01-17T00:35:12.561Z,56.88
2023-01-17T00:36:12.470Z,57.85
2023-01-17T00:37:12.452Z,61.39
2023-01-17T00:38:12.466Z,63.16
2023-01-17T00:39:12.435Z,60.75
2023-01-17T00:40:12.437Z,61.55
2023-01-17T00:41:12.430Z,53.33
2023-01-17T00:42:12.414Z,58.97
2023-01-17T00:43:12.419Z,57.04
2023-01-17T00:44:12.410Z,59.62
2023-01-17T00:45:12.405Z,60.59
2023-01-17T00:46:12.472Z,58.33
2023-01-17T00:47:12.385Z,60.42
2023-01-17T00:48:12.388Z,60.10
2023-01-17T00:49:12.380Z,51.56
2023-01-17T00:50:12.366Z,60.59
2023-01-17T00:51:12.366Z,62.04
2023-01-17T00:52:12.356Z,58.33
2023-01-17T00:53:12.352Z,55.11
2023-01-17T00:54:12.412Z,60.42
2023-01-17T00:55:12.346Z,61.39
2023-01-17T00:56:12.335Z,62.68
2023-01-17T00:57:12.336Z,52.85
2023-01-17T00:58:12.374Z,60.59
2023-01-17T00:59:12.309Z,60.42
2023-01-17T01:00:12.307Z,48.66
2023-01-17T01:01:12.321Z,58.17
2023-01-17T01:02:12.397Z,56.88
2023-01-17T01:03:12.286Z,49.31
2023-01-17T01:04:12.286Z,62.36
2023-01-17T01:05:12.259Z,54.14
2023-01-17T01:06:12.258Z,53.98
2023-01-17T01:07:13.255Z,62.84
2023-01-17T01:08:12.253Z,61.07
2023-01-17T01:09:12.268Z,65.26
2023-01-17T01:10:12.236Z,58.33
2023-01-17T01:11:12.234Z,60.10
2023-01-17T01:12:12.225Z,52.85
2023-01-17T01:13:12.222Z,58.49
2023-01-17T01:14:12.209Z,56.24
2023-01-17T01:15:12.208Z,54.14
2023-01-17T01:16:12.232Z,57.69
2023-01-17T01:17:12.211Z,60.42
2023-01-17T01:18:12.192Z,59.30
2023-01-17T01:19:12.182Z,58.65
2023-01-17T01:20:12.173Z,61.71
2023-01-17T01:21:12.167Z,52.69
2023-01-17T01:22:12.180Z,61.39
2023-01-17T01:23:12.148Z,57.85
2023-01-17T01:24:12.138Z,61.87
2023-01-17T01:25:12.134Z,60.59
2023-01-17T01:26:12.136Z,58.01
2023-01-17T01:27:12.143Z,48.66
2023-01-17T01:28:12.148Z,53.33
2023-01-17T01:29:12.107Z,64.78
2023-01-17T01:30:12.102Z,60.91
2023-01-17T01:31:12.163Z,60.10
2023-01-17T01:32:12.133Z,57.20
2023-01-17T01:33:12.088Z,51.40
2023-01-17T01:34:12.082Z,58.01
2023-01-17T01:35:12.063Z,60.26
2023-01-17T01:36:12.061Z,61.23
2023-01-17T01:37:12.061Z,61.55
2023-01-17T01:38:12.052Z,56.56
2023-01-17T01:39:12.042Z,62.20
2023-01-17T01:40:12.072Z,54.95
2023-01-17T01:41:12.055Z,59.94
2023-01-17T01:42:12.017Z,58.97
2023-01-17T01:43:12.028Z,58.81
2023-01-17T01:44:12.013Z,58.97
2023-01-17T01:45:12.030Z,59.30
2023-01-17T01:46:12.001Z,56.88
2023-01-17T01:47:11.996Z,58.97
2023-01-17T01:48:11.989Z,55.43
2023-01-17T01:49:11.981Z,62.36
2023-01-17T01:50:11.991Z,59.14
2023-01-17T01:51:11.990Z,61.87
2023-01-17T01:52:11.994Z,61.23
2023-01-17T01:53:11.960Z,62.84
2023-01-17T01:54:11.942Z,63.00
2023-01-17T01:55:11.948Z,60.91
2023-01-17T01:56:11.943Z,57.04
2023-01-17T01:57:11.923Z,65.58
2023-01-17T01:58:11.920Z,61.87
2023-01-17T01:59:11.906Z,60.75
2023-01-17T02:00:11.931Z,62.52
2023-01-17T02:01:12.006Z,58.81
2023-01-17T02:02:11.905Z,58.17
2023-01-17T02:03:11.885Z,52.69
2023-01-17T02:04:11.943Z,58.97
2023-01-17T02:05:11.869Z,63.00
2023-01-17T02:06:11.884Z,61.55
2023-01-17T02:07:11.869Z,56.88
2023-01-17T02:08:11.854Z,58.65
2023-01-17T02:09:11.852Z,56.56
2023-01-17T02:10:11.856Z,59.46
2023-01-17T02:11:11.863Z,58.65
2023-01-17T02:12:11.837Z,58.49
2023-01-17T02:13:11.842Z,59.62
2023-01-17T02:14:11.817Z,59.78
2023-01-17T02:15:11.804Z,64.78
2023-01-17T02:16:11.809Z,60.10
2023-01-17T02:17:11.815Z,63.16
2023-01-17T02:18:11.793Z,62.68
2023-01-17T02:19:11.772Z,58.01
2023-01-17T02:20:11.782Z,57.52
2023-01-17T02:21:11.773Z,64.94
2023-01-17T02:22:11.799Z,63.00
2023-01-17T02:23:11.752Z,63.49
2023-01-17T02:24:11.750Z,57.85
2023-01-17T02:25:11.755Z,58.81
2023-01-17T02:26:11.751Z,61.39
2023-01-17T02:27:11.735Z,61.71
2023-01-17T02:28:11.742Z,63.00
2023-01-17T02:29:11.721Z,63.97
2023-01-17T02:30:12.744Z,60.91
2023-01-17T02:31:11.707Z,57.85
2023-01-17T02:32:11.706Z,55.43
2023-01-17T02:33:11.696Z,60.42
2023-01-17T02:34:11.694Z,61.39
2023-01-17T02:35:11.679Z,60.59
2023-01-17T02:36:11.705Z,62.36
2023-01-17T02:37:11.667Z,62.04
2023-01-17T02:38:11.675Z,61.23
2023-01-17T02:39:11.655Z,61.07
2023-01-17T02:40:11.650Z,62.68
2023-01-17T02:41:11.653Z,58.33
2023-01-17T02:42:11.624Z,60.59
2023-01-17T02:43:11.666Z,57.85
2023-01-17T02:44:11.634Z,57.20
2023-01-17T02:45:11.608Z,60.75
2023-01-17T02:46:11.698Z,61.71
2023-01-17T02:47:11.599Z,61.07
2023-01-17T02:48:11.752Z,60.59
2023-01-17T02:49:11.606Z,62.84
2023-01-17T02:50:11.591Z,58.01
2023-01-17T02:51:11.581Z,64.29
2023-01-17T02:52:11.580Z,59.94
2023-01-17T02:53:11.564Z,60.91
2023-01-17T02:54:11.575Z,63.16
2023-01-17T02:55:11.552Z,64.13
2023-01-17T02:56:11.551Z,60.75
2023-01-17T02:57:11.533Z,62.52
2023-01-17T02:58:11.571Z,59.62
2023-01-17T02:59:11.536Z,62.36
2023-01-17T03:00:11.520Z,59.30
2023-01-17T03:01:11.557Z,61.23
2023-01-17T03:02:11.682Z,61.39
2023-01-17T03:03:11.495Z,60.75
2023-01-17T03:04:11.498Z,63.16
2023-01-17T03:05:11.490Z,58.65
2023-01-17T03:06:11.505Z,65.74
2023-01-17T03:07:11.470Z,63.33
2023-01-17T03:08:11.462Z,63.65
2023-01-17T03:09:11.454Z,61.07
2023-01-17T03:10:11.474Z,60.10
2023-01-17T03:11:11.444Z,62.20
2023-01-17T03:12:11.432Z,61.55
2023-01-17T03:13:11.430Z,59.30
2023-01-17T03:14:11.436Z,56.24
2023-01-17T03:15:11.425Z,62.84
2023-01-17T03:16:12.787Z,64.29
2023-01-17T03:17:12.413Z,64.29
2023-01-17T03:18:11.402Z,57.20
2023-01-17T03:19:11.396Z,62.36
2023-01-17T03:20:11.388Z,62.04
2023-01-17T03:21:11.408Z,63.33
2023-01-17T03:22:11.373Z,62.68
2023-01-17T03:23:11.368Z,64.13
2023-01-17T03:24:11.356Z,61.71
2023-01-17T03:25:11.358Z,61.71
2023-01-17T03:26:11.363Z,59.14
2023-01-17T03:27:11.350Z,66.71
2023-01-17T03:28:11.333Z,59.94
2023-01-17T03:29:11.322Z,61.07
2023-01-17T03:30:11.322Z,61.71
2023-01-17T03:31:11.350Z,64.78
2023-01-17T03:32:11.306Z,64.61
2023-01-17T03:33:11.302Z,62.04
2023-01-17T03:34:11.286Z,61.71
2023-01-17T03:35:11.281Z,62.20
2023-01-17T03:36:11.282Z,57.36
2023-01-17T03:37:11.286Z,62.20
2023-01-17T03:38:11.265Z,60.59
2023-01-17T03:39:11.272Z,61.23
2023-01-17T03:40:11.259Z,64.29
2023-01-17T03:41:11.252Z,58.81
2023-01-17T03:42:11.253Z,62.04
2023-01-17T03:43:11.236Z,61.23
2023-01-17T03:44:11.228Z,61.39
2023-01-17T03:45:11.233Z,61.87
2023-01-17T03:46:11.266Z,63.65
2023-01-17T03:47:11.205Z,64.13
2023-01-17T03:48:11.224Z,61.87
2023-01-17T03:49:11.207Z,60.91
2023-01-17T03:50:11.199Z,63.97
2023-01-17T03:51:11.180Z,63.16
2023-01-17T03:52:11.181Z,65.26
2023-01-17T03:53:12.179Z,61.07
2023-01-17T03:54:11.174Z,60.91
2023-01-17T03:55:11.170Z,61.07
2023-01-17T03:56:11.148Z,60.10
2023-01-17T03:57:11.147Z,63.00
2023-01-17T03:58:11.135Z,62.68
2023-01-17T03:59:13.143Z,64.29
2023-01-17T04:00:12.137Z,65.10
2023-01-17T04:01:11.250Z,68.00
2023-01-17T04:02:11.224Z,61.55
2023-01-17T04:03:11.107Z,62.68
2023-01-17T04:04:11.105Z,61.23
2023-01-17T04:05:11.098Z,61.87
2023-01-17T04:06:11.097Z,63.65
2023-01-17T04:07:11.091Z,62.68
2023-01-17T04:08:11.082Z,61.87
2023-01-17T04:09:11.060Z,61.87
2023-01-17T04:10:11.076Z,62.04
2023-01-17T04:11:11.080Z,64.78
2023-01-17T04:12:11.082Z,62.52
2023-01-17T04:13:11.073Z,63.16
2023-01-17T04:14:11.072Z,62.20
2023-01-17T04:15:11.021Z,62.36
2023-01-17T04:16:11.040Z,65.74
2023-01-17T04:17:11.028Z,66.55
2023-01-17T04:18:11.019Z,62.20
2023-01-17T04:19:11.027Z,60.75
2023-01-17T04:20:11.040Z,64.78
2023-01-17T04:21:10.982Z,65.74
2023-01-17T04:22:10.987Z,65.58
2023-01-17T04:23:10.968Z,64.94
2023-01-17T04:24:11.033Z,63.97
2023-01-17T04:25:10.968Z,63.49
2023-01-17T04:26:10.954Z,67.03
2023-01-17T04:27:10.960Z,64.29
2023-01-17T04:28:10.947Z,66.23
2023-01-17T04:29:10.934Z,63.97
2023-01-17T04:30:10.932Z,67.68
2023-01-17T04:31:11.995Z,64.45
2023-01-17T04:32:10.941Z,64.29
2023-01-17T04:33:10.904Z,64.78
2023-01-17T04:34:10.924Z,64.94
2023-01-17T04:35:10.887Z,64.94
2023-01-17T04:36:10.884Z,68.96
2023-01-17T04:37:10.887Z,67.51
2023-01-17T04:38:10.879Z,65.42
2023-01-17T04:39:11.881Z,65.42
2023-01-17T04:40:10.857Z,67.68
2023-01-17T04:41:10.876Z,70.09
2023-01-17T04:42:10.852Z,68.16
2023-01-17T04:43:10.838Z,66.23
2023-01-17T04:44:10.843Z,69.13
2023-01-17T04:45:10.842Z,67.51
2023-01-17T04:46:11.861Z,69.61
2023-01-17T04:47:10.820Z,65.58
2023-01-17T04:48:10.813Z,66.06
2023-01-17T04:49:10.822Z,68.16
2023-01-17T04:50:10.827Z,68.96
2023-01-17T04:51:10.802Z,68.16
2023-01-17T04:52:10.790Z,68.00
2023-01-17T04:53:10.774Z,66.06
2023-01-17T04:54:10.784Z,66.55
2023-01-17T04:55:10.776Z,66.06
2023-01-17T04:56:10.766Z,67.03
2023-01-17T04:57:10.755Z,65.26
2023-01-17T04:58:10.755Z,69.93
2023-01-17T04:59:10.747Z,62.68
2023-01-17T05:00:10.769Z,63.81
2023-01-17T05:01:10.828Z,67.51
2023-01-17T05:02:10.778Z,64.78
2023-01-17T05:03:10.792Z,65.58
2023-01-17T05:04:10.726Z,65.10
2023-01-17T05:05:10.707Z,66.23
2023-01-17T05:06:10.710Z,66.06
2023-01-17T05:07:10.693Z,66.71
2023-01-17T05:08:10.689Z,69.45
2023-01-17T05:09:10.692Z,66.06
2023-01-17T05:10:10.687Z,69.61
2023-01-17T05:11:10.669Z,70.09
2023-01-17T05:12:10.654Z,67.68
2023-01-17T05:13:10.648Z,69.29
2023-01-17T05:14:10.636Z,66.39
2023-01-17T05:15:10.621Z,70.58
2023-01-17T05:16:10.682Z,66.55
2023-01-17T05:17:10.625Z,68.80
2023-01-17T05:18:10.621Z,67.68
2023-01-17T05:19:10.619Z,65.90
2023-01-17T05:20:10.610Z,65.26
2023-01-17T05:21:10.599Z,65.42
2023-01-17T05:22:10.591Z,71.06
2023-01-17T05:23:10.614Z,67.35
2023-01-17T05:24:10.599Z,65.90
2023-01-17T05:25:10.581Z,64.45
2023-01-17T05:26:10.590Z,65.42
2023-01-17T05:27:10.558Z,65.26
2023-01-17T05:28:10.568Z,65.90
2023-01-17T05:29:10.661Z,65.42
2023-01-17T05:30:10.540Z,64.45
2023-01-17T05:31:10.608Z,67.51
2023-01-17T05:32:10.552Z,67.35
2023-01-17T05:33:10.537Z,66.39
2023-01-17T05:34:10.528Z,66.23
2023-01-17T05:35:10.502Z,67.51
2023-01-17T05:36:10.507Z,66.39
2023-01-17T05:37:10.496Z,71.22
2023-01-17T05:38:10.485Z,67.84
2023-01-17T05:39:10.511Z,67.51
2023-01-17T05:40:10.482Z,68.00
2023-01-17T05:41:10.461Z,69.93
2023-01-17T05:42:10.472Z,68.00
2023-01-17T05:43:10.461Z,65.90
2023-01-17T05:44:10.470Z,67.68
2023-01-17T05:45:10.485Z,66.87
2023-01-17T05:46:10.528Z,69.61
2023-01-17T05:47:10.445Z,69.13
2023-01-17T05:48:10.423Z,67.19
2023-01-17T05:49:10.436Z,69.13
2023-01-17T05:50:10.433Z,66.23
2023-01-17T05:51:10.417Z,67.51
2023-01-17T05:52:10.405Z,67.35
2023-01-17T05:53:10.393Z,68.00
2023-01-17T05:54:10.386Z,69.13
2023-01-17T05:55:10.387Z,68.48
2023-01-17T05:56:10.395Z,68.00
2023-01-17T05:57:10.376Z,66.55
2023-01-17T05:58:10.356Z,67.51
2023-01-17T05:59:12.072Z,66.55
2023-01-17T06:00:10.353Z,68.16
2023-01-17T06:01:10.418Z,68.32
2023-01-17T06:02:10.362Z,66.87
2023-01-17T06:03:10.355Z,66.55
2023-01-17T06:04:10.341Z,66.39
2023-01-17T06:05:10.323Z,68.00
2023-01-17T06:06:10.314Z,68.00
2023-01-17T06:07:10.361Z,68.48
2023-01-17T06:08:10.297Z,68.16
2023-01-17T06:09:10.285Z,65.74
2023-01-17T06:10:10.282Z,66.55
2023-01-17T06:11:10.277Z,66.06
2023-01-17T06:12:10.281Z,67.51
2023-01-17T06:13:10.265Z,68.00
2023-01-17T06:14:10.255Z,66.23
2023-01-17T06:15:10.249Z,67.84
2023-01-17T06:16:10.281Z,66.06
2023-01-17T06:17:10.246Z,66.39
2023-01-17T06:18:10.232Z,68.64
2023-01-17T06:19:10.218Z,67.03
2023-01-17T06:20:10.259Z,66.06
2023-01-17T06:21:10.203Z,65.26
2023-01-17T06:22:10.209Z,66.71
2023-01-17T06:23:10.189Z,68.32
2023-01-17T06:24:10.189Z,66.23
2023-01-17T06:25:10.210Z,66.06
2023-01-17T06:26:10.177Z,68.00
2023-01-17T06:27:10.168Z,68.80
2023-01-17T06:28:10.172Z,66.87
2023-01-17T06:29:10.149Z,67.03
2023-01-17T06:30:10.179Z,66.71
2023-01-17T06:31:10.173Z,67.35
2023-01-17T06:32:10.142Z,67.51
2023-01-17T06:33:10.132Z,69.61
2023-01-17T06:34:10.129Z,67.03
2023-01-17T06:35:10.118Z,67.84
2023-01-17T06:36:10.133Z,65.42
2023-01-17T06:37:10.114Z,69.13
2023-01-17T06:38:10.082Z,69.29
2023-01-17T06:39:10.089Z,68.16
2023-01-17T06:40:10.174Z,67.35
2023-01-17T06:41:10.101Z,68.32
2023-01-17T06:42:10.265Z,67.19
2023-01-17T06:43:10.058Z,67.51
2023-01-17T06:44:10.078Z,68.32
2023-01-17T06:45:10.053Z,68.00
2023-01-17T06:46:10.100Z,69.77
2023-01-17T06:47:10.072Z,66.55
2023-01-17T06:48:11.058Z,67.35
2023-01-17T06:49:10.019Z,68.32
2023-01-17T06:50:10.051Z,67.03
2023-01-17T06:51:10.017Z,66.39
2023-01-17T06:52:10.002Z,66.55
2023-01-17T06:53:10.040Z,68.32
2023-01-17T06:54:09.981Z,72.19
2023-01-17T06:55:09.991Z,75.09
2023-01-17T06:56:09.973Z,66.71
2023-01-17T06:57:09.963Z,66.55
2023-01-17T06:58:09.996Z,68.00
2023-01-17T06:59:09.959Z,68.00
2023-01-17T07:00:09.959Z,68.16
2023-01-17T07:01:09.970Z,66.55
2023-01-17T07:02:09.930Z,71.54
2023-01-17T07:03:09.961Z,67.19
2023-01-17T07:04:09.941Z,67.51
2023-01-17T07:05:09.923Z,66.39
2023-01-17T07:06:09.906Z,66.39
2023-01-17T07:07:09.909Z,66.39
2023-01-17T07:08:09.898Z,64.78
2023-01-17T07:09:09.890Z,68.32
2023-01-17T07:10:09.900Z,66.39
2023-01-17T07:11:09.882Z,68.32
2023-01-17T07:12:09.896Z,70.90
2023-01-17T07:13:09.879Z,66.39
2023-01-17T07:14:09.857Z,68.00
2023-01-17T07:15:09.881Z,66.71
2023-01-17T07:16:09.933Z,65.10
2023-01-17T07:17:09.842Z,66.23
2023-01-17T07:18:09.853Z,65.42
2023-01-17T07:19:09.830Z,67.03
2023-01-17T07:20:09.835Z,66.87
2023-01-17T07:21:09.907Z,66.06
2023-01-17T07:22:09.807Z,65.90
2023-01-17T07:23:09.796Z,65.58
2023-01-17T07:24:09.784Z,67.03
2023-01-17T07:25:10.805Z,66.23
2023-01-17T07:26:09.784Z,68.48
2023-01-17T07:27:09.768Z,65.42
2023-01-17T07:28:10.770Z,66.55
2023-01-17T07:29:09.853Z,65.58
2023-01-17T07:30:09.783Z,68.32
2023-01-17T07:31:09.880Z,67.03
2023-01-17T07:32:09.739Z,66.06
2023-01-17T07:33:09.743Z,65.10
2023-01-17T07:34:09.747Z,67.03
2023-01-17T07:35:09.718Z,67.03
2023-01-17T07:36:09.731Z,66.06
2023-01-17T07:37:09.703Z,68.00
2023-01-17T07:38:09.705Z,67.51
2023-01-17T07:39:09.709Z,70.09
2023-01-17T07:40:09.694Z,66.23
2023-01-17T07:41:11.075Z,67.68
2023-01-17T07:42:10.681Z,65.26
2023-01-17T07:43:09.669Z,63.97
2023-01-17T07:44:09.665Z,65.58
2023-01-17T07:45:09.661Z,64.78
2023-01-17T07:46:09.665Z,66.06
2023-01-17T07:47:09.667Z,66.71
2023-01-17T07:48:09.640Z,67.03
2023-01-17T07:49:09.630Z,64.78
2023-01-17T07:50:09.630Z,65.90
2023-01-17T07:51:09.628Z,65.10
2023-01-17T07:52:09.626Z,64.13
2023-01-17T07:53:09.596Z,65.10
2023-01-17T07:54:09.600Z,68.80
2023-01-17T07:55:09.605Z,64.94
2023-01-17T07:56:09.589Z,66.06
2023-01-17T07:57:09.593Z,65.26
2023-01-17T07:58:09.572Z,65.42
2023-01-17T07:59:09.563Z,64.78
2023-01-17T08:00:09.559Z,65.10
2023-01-17T08:01:09.680Z,65.26
2023-01-17T08:02:09.572Z,68.96
2023-01-17T08:03:09.538Z,64.45
2023-01-17T08:04:09.586Z,65.74
2023-01-17T08:05:09.524Z,65.10
2023-01-17T08:06:09.550Z,65.58
2023-01-17T08:07:09.525Z,66.23
2023-01-17T08:08:09.502Z,66.23
2023-01-17T08:09:09.502Z,66.71
2023-01-17T08:10:09.504Z,66.87
2023-01-17T08:11:09.488Z,67.19
2023-01-17T08:12:09.492Z,64.78
2023-01-17T08:13:09.496Z,63.16
2023-01-17T08:14:09.469Z,65.10
2023-01-17T08:15:09.461Z,62.36
2023-01-17T08:16:09.466Z,62.20
2023-01-17T08:17:09.450Z,62.52
2023-01-17T08:18:09.437Z,63.00
2023-01-17T08:19:09.435Z,63.81
2023-01-17T08:20:09.429Z,63.00
2023-01-17T08:21:09.421Z,63.65
2023-01-17T08:22:09.424Z,65.10
2023-01-17T08:23:09.422Z,63.65
2023-01-17T08:24:09.413Z,65.42
2023-01-17T08:25:09.402Z,65.90
2023-01-17T08:26:09.383Z,63.16
2023-01-17T08:27:09.381Z,68.16
2023-01-17T08:28:09.382Z,71.70
2023-01-17T08:29:09.423Z,63.33
2023-01-17T08:30:09.365Z,64.61
2023-01-17T08:31:09.372Z,63.81
2023-01-17T08:32:09.348Z,63.16
2023-01-17T08:33:10.343Z,63.65
2023-01-17T08:34:09.404Z,62.68
2023-01-17T08:35:09.352Z,64.13
2023-01-17T08:36:09.312Z,64.13
2023-01-17T08:37:09.328Z,62.04
2023-01-17T08:38:09.316Z,62.52
2023-01-17T08:39:09.303Z,63.49
2023-01-17T08:40:09.319Z,63.65
2023-01-17T08:41:09.294Z,63.97
2023-01-17T08:42:09.281Z,62.68
2023-01-17T08:43:09.272Z,62.68
2023-01-17T08:44:09.274Z,63.00
2023-01-17T08:45:09.289Z,63.49
2023-01-17T08:46:09.341Z,65.74
2023-01-17T08:47:09.262Z,72.03
2023-01-17T08:48:09.241Z,62.84
2023-01-17T08:49:09.231Z,64.29
2023-01-17T08:50:09.247Z,64.13
2023-01-17T08:51:09.244Z,62.84
2023-01-17T08:52:09.231Z,64.29
2023-01-17T08:53:09.214Z,62.20
2023-01-17T08:54:09.207Z,63.97
2023-01-17T08:55:09.223Z,63.16
2023-01-17T08:56:09.198Z,62.52
2023-01-17T08:57:09.202Z,62.04
2023-01-17T08:58:09.186Z,65.90
2023-01-17T08:59:09.173Z,63.16
2023-01-17T09:00:09.187Z,65.42
2023-01-17T09:01:09.300Z,63.97
2023-01-17T09:02:09.342Z,64.29
2023-01-17T09:03:09.149Z,61.71
2023-01-17T09:04:09.249Z,69.45
2023-01-17T09:05:09.143Z,63.65
2023-01-17T09:06:09.151Z,65.26
2023-01-17T09:07:09.130Z,63.16
2023-01-17T09:08:09.129Z,62.84
2023-01-17T09:09:09.106Z,64.78
2023-01-17T09:10:09.101Z,62.68
2023-01-17T09:11:09.104Z,63.00
2023-01-17T09:12:10.090Z,64.45
2023-01-17T09:13:09.091Z,63.65
2023-01-17T09:14:09.081Z,64.78
2023-01-17T09:15:09.057Z,65.90
2023-01-17T09:16:09.108Z,67.03
2023-01-17T09:17:09.125Z,62.68
2023-01-17T09:18:09.053Z,63.97
2023-01-17T09:19:09.049Z,65.26
2023-01-17T09:20:09.039Z,64.29
2023-01-17T09:21:09.034Z,65.26
2023-01-17T09:22:09.055Z,63.97
2023-01-17T09:23:09.837Z,64.94
2023-01-17T09:24:09.025Z,67.84
2023-01-17T09:25:09.021Z,65.58
2023-01-17T09:26:09.000Z,67.51
2023-01-17T09:27:08.993Z,62.84
2023-01-17T09:28:08.993Z,65.26
2023-01-17T09:29:09.014Z,63.65
2023-01-17T09:30:08.965Z,66.55
2023-01-17T09:31:09.006Z,64.45
2023-01-17T09:32:08.972Z,66.06
2023-01-17T09:33:08.953Z,65.26
2023-01-17T09:34:08.949Z,67.35
2023-01-17T09:35:08.954Z,64.78
2023-01-17T09:36:08.939Z,65.74
2023-01-17T09:37:08.921Z,64.29
2023-01-17T09:38:08.917Z,63.16
2023-01-17T09:39:08.917Z,64.29
2023-01-17T09:40:08.929Z,64.29
2023-01-17T09:41:08.909Z,61.87
2023-01-17T09:42:08.899Z,64.61
2023-01-17T09:43:08.881Z,65.26
2023-01-17T09:44:08.878Z,63.65
2023-01-17T09:45:08.879Z,63.33
2023-01-17T09:46:08.924Z,63.65
2023-01-17T09:47:08.891Z,63.65
2023-01-17T09:48:08.860Z,63.33
2023-01-17T09:49:08.848Z,63.81
2023-01-17T09:50:08.852Z,64.94
2023-01-17T09:51:08.850Z,62.84
2023-01-17T09:52:08.833Z,62.52
2023-01-17T09:53:08.837Z,62.84
2023-01-17T09:54:08.825Z,64.94
2023-01-17T09:55:08.814Z,64.45
2023-01-17T09:56:08.813Z,64.29
2023-01-17T09:57:08.801Z,62.20
2023-01-17T09:58:08.801Z,64.29
2023-01-17T09:59:08.786Z,63.81
2023-01-17T10:00:08.796Z,61.55
2023-01-17T10:01:08.905Z,60.75
2023-01-17T10:02:08.997Z,60.59
2023-01-17T10:03:08.847Z,63.97
2023-01-17T10:04:08.829Z,61.55
2023-01-17T10:05:08.843Z,62.20
2023-01-17T10:06:08.752Z,61.07
2023-01-17T10:07:08.729Z,65.26
2023-01-17T10:08:08.748Z,64.45
2023-01-17T10:09:08.783Z,68.32
2023-01-17T10:10:08.771Z,64.29
2023-01-17T10:11:08.728Z,63.97
2023-01-17T10:12:08.700Z,64.78
2023-01-17T10:13:08.709Z,63.65
2023-01-17T10:14:08.688Z,60.75
2023-01-17T10:15:08.709Z,62.04
2023-01-17T10:16:08.671Z,61.71
2023-01-17T10:17:08.652Z,59.78
2023-01-17T10:18:10.145Z,58.97
2023-01-17T10:19:08.678Z,60.75
2023-01-17T10:20:08.648Z,61.23
2023-01-17T10:21:08.648Z,61.39
2023-01-17T10:22:08.630Z,62.52
2023-01-17T10:23:08.657Z,62.84
2023-01-17T10:24:08.721Z,62.36
2023-01-17T10:25:08.613Z,58.49
2023-01-17T10:26:08.597Z,60.75
2023-01-17T10:27:08.624Z,60.59
2023-01-17T10:28:08.603Z,63.16
2023-01-17T10:29:08.653Z,61.71
2023-01-17T10:30:08.601Z,60.59
2023-01-17T10:31:08.600Z,63.49
2023-01-17T10:32:08.590Z,65.74
2023-01-17T10:33:08.584Z,61.07
2023-01-17T10:34:08.554Z,60.42
2023-01-17T10:35:08.581Z,61.87
2023-01-17T10:36:08.551Z,63.81
2023-01-17T10:37:08.549Z,61.55
2023-01-17T10:38:08.564Z,62.36
2023-01-17T10:39:08.547Z,61.71
2023-01-17T10:40:08.554Z,63.65
2023-01-17T10:41:08.517Z,61.55
2023-01-17T10:42:08.504Z,61.07
2023-01-17T10:43:08.500Z,63.65
2023-01-17T10:44:08.472Z,62.04
2023-01-17T10:45:08.488Z,62.36
2023-01-17T10:46:08.577Z,62.20
2023-01-17T10:47:08.484Z,61.71
2023-01-17T10:48:08.454Z,61.71
2023-01-17T10:49:08.444Z,62.68
2023-01-17T10:50:08.438Z,62.52
2023-01-17T10:51:08.453Z,69.13
2023-01-17T10:52:08.464Z,82.82
2023-01-17T10:53:08.403Z,61.55
2023-01-17T10:54:08.426Z,64.29
2023-01-17T10:55:08.418Z,62.36
2023-01-17T10:56:09.418Z,63.97
2023-01-17T10:57:08.406Z,64.29
2023-01-17T10:58:08.377Z,62.20
2023-01-17T10:59:08.395Z,60.75
2023-01-17T11:00:08.392Z,66.23
2023-01-17T11:01:08.479Z,63.65
2023-01-17T11:02:08.419Z,65.26
2023-01-17T11:03:08.432Z,61.71
2023-01-17T11:04:08.356Z,63.33
2023-01-17T11:05:08.369Z,62.20
2023-01-17T11:06:08.352Z,61.23
2023-01-17T11:07:08.360Z,62.68
2023-01-17T11:08:08.324Z,60.91
2023-01-17T11:09:08.309Z,59.94
2023-01-17T11:10:08.309Z,60.59
2023-01-17T11:11:08.297Z,62.04
2023-01-17T11:12:08.297Z,63.00
2023-01-17T11:13:08.301Z,62.36
2023-01-17T11:14:08.286Z,61.07
2023-01-17T11:15:08.288Z,60.42
2023-01-17T11:16:08.360Z,59.94
2023-01-17T11:17:08.275Z,60.59
2023-01-17T11:18:08.274Z,63.65
2023-01-17T11:19:08.240Z,61.23
2023-01-17T11:20:08.269Z,58.65
2023-01-17T11:21:08.228Z,60.59
2023-01-17T11:22:08.224Z,63.33
2023-01-17T11:23:08.230Z,58.97
2023-01-17T11:24:08.227Z,59.62
2023-01-17T11:25:08.208Z,58.49
2023-01-17T11:26:09.200Z,60.26
2023-01-17T11:27:08.197Z,58.33
2023-01-17T11:28:08.197Z,57.04
2023-01-17T11:29:08.264Z,59.78
2023-01-17T11:30:08.188Z,61.39
2023-01-17T11:31:08.254Z,61.23
2023-01-17T11:32:08.152Z,58.65
2023-01-17T11:33:08.151Z,59.78
2023-01-17T11:34:08.160Z,61.23
2023-01-17T11:35:08.243Z,59.62
2023-01-17T11:36:08.144Z,59.94
2023-01-17T11:37:08.142Z,61.55
2023-01-17T11:38:08.138Z,58.81
2023-01-17T11:39:08.112Z,59.78
2023-01-17T11:40:08.109Z,63.97
2023-01-17T11:41:08.134Z,65.42
2023-01-17T11:42:08.096Z,59.62
2023-01-17T11:43:08.112Z,61.07
2023-01-17T11:44:08.083Z,60.91
2023-01-17T11:45:08.086Z,62.36
2023-01-17T11:46:08.122Z,61.23
2023-01-17T11:47:08.102Z,59.62
2023-01-17T11:48:08.075Z,58.49
2023-01-17T11:49:08.076Z,59.62
2023-01-17T11:50:08.042Z,61.71
2023-01-17T11:51:08.045Z,59.62
2023-01-17T11:52:08.047Z,59.30
2023-01-17T11:53:08.028Z,62.52
2023-01-17T11:54:08.012Z,60.91
2023-01-17T11:55:08.012Z,59.30
2023-01-17T11:56:08.042Z,59.94
2023-01-17T11:57:08.017Z,59.14
2023-01-17T11:58:07.983Z,58.81
2023-01-17T11:59:07.995Z,61.55
2023-01-17T12:00:07.981Z,63.97
2023-01-17T12:01:08.050Z,59.94
2023-01-17T12:02:07.982Z,61.07
2023-01-17T12:03:07.959Z,60.59
2023-01-17T12:04:08.001Z,60.26
2023-01-17T12:05:07.981Z,60.91
2023-01-17T12:06:07.944Z,60.59
2023-01-17T12:07:07.960Z,59.30
2023-01-17T12:08:07.946Z,59.62
2023-01-17T12:09:08.020Z,60.91
2023-01-17T12:10:07.928Z,60.26
2023-01-17T12:11:07.912Z,61.39
2023-01-17T12:12:07.925Z,65.58
2023-01-17T12:13:07.903Z,63.65
2023-01-17T12:14:07.926Z,59.62
2023-01-17T12:15:07.895Z,59.94
2023-01-17T12:16:08.058Z,58.81
2023-01-17T12:17:07.900Z,61.55
2023-01-17T12:18:07.872Z,59.46
2023-01-17T12:19:07.870Z,61.55
2023-01-17T12:20:07.852Z,59.62
2023-01-17T12:21:07.852Z,60.75
2023-01-17T12:22:07.874Z,59.30
2023-01-17T12:23:07.859Z,61.39
2023-01-17T12:24:07.845Z,63.16
2023-01-17T12:25:07.819Z,59.30
2023-01-17T12:26:07.815Z,60.59
2023-01-17T12:27:08.978Z,60.10
2023-01-17T12:28:07.808Z,59.62
2023-01-17T12:29:07.804Z,76.22
2023-01-17T12:30:07.800Z,72.35
2023-01-17T12:31:07.789Z,59.30
2023-01-17T12:32:07.784Z,61.07
2023-01-17T12:33:07.791Z,62.04
2023-01-17T12:34:08.152Z,61.39
2023-01-17T12:35:07.771Z,61.07
2023-01-17T12:36:07.783Z,60.91
2023-01-17T12:37:07.757Z,60.42
2023-01-17T12:38:07.746Z,60.59
2023-01-17T12:39:07.770Z,61.39
2023-01-17T12:40:07.731Z,60.26
2023-01-17T12:41:07.730Z,60.75
2023-01-17T12:42:07.716Z,60.10
2023-01-17T12:43:07.716Z,63.16
2023-01-17T12:44:07.736Z,62.04
2023-01-17T12:45:07.687Z,60.42
2023-01-17T12:46:07.686Z,58.65
2023-01-17T12:47:07.675Z,61.87
2023-01-17T12:48:07.672Z,60.91
2023-01-17T12:49:07.688Z,62.68
2023-01-17T12:50:07.672Z,64.29
2023-01-17T12:51:07.687Z,61.55
2023-01-17T12:52:07.651Z,62.20